Time;durP1;ratioP1;P1;durP2;ratioP2;P2;SDS_P1;SDS_P2;PMS_P1;PMS_P2;Temp;Humidity;BMP_temperature;BMP_pressure;BME280_temperature;BME280_humidity;BME280_pressure;Samples;Min_cycle;Max_cycle;Signal;HPM_P1;HPM_P2
2022/08/26 00:01:47;;;;;;;20.65;5.65;;;;;;;17.91;100.00;99613.77;1683880;83;21117;-52
2022/08/26 00:04:13;;;;;;;15.60;4.53;;;;;;;17.88;100.00;99609.91;1685160;83;21536;-52
2022/08/26 00:06:40;;;;;;;7.35;3.20;;;;;;;17.86;100.00;99614.15;1681396;83;21118;-51
2022/08/26 00:09:07;;;;;;;5.85;4.15;;;;;;;17.86;100.00;99609.20;1680082;83;21295;-51
2022/08/26 00:11:34;;;;;;;6.08;3.25;;;;;;;17.85;100.00;99613.77;1683076;83;21101;-51
2022/08/26 00:14:01;;;;;;;20.23;6.37;;;;;;;17.79;100.00;99611.52;1682160;83;21014;-51
2022/08/26 00:16:28;;;;;;;13.93;4.45;;;;;;;17.76;100.00;99607.70;1665278;84;21126;-51
2022/08/26 00:18:55;;;;;;;4.72;2.62;;;;;;;17.72;100.00;99604.84;1670905;84;21129;-51
2022/08/26 00:21:22;;;;;;;2.72;2.52;;;;;;;17.68;100.00;99608.31;1664324;84;21092;-51
2022/08/26 00:23:49;;;;;;;4.00;2.37;;;;;;;17.66;100.00;99602.61;1669459;84;21073;-52
2022/08/26 00:28:00;;;;;;;5.03;2.13;;;;;;;17.67;100.00;99599.77;1785690;78;26487;-52
2022/08/26 00:30:28;;;;;;;4.53;2.50;;;;;;;17.60;100.00;99599.00;1751212;80;21038;-52
2022/08/26 00:32:55;;;;;;;6.62;2.30;;;;;;;17.55;100.00;99602.06;1737006;80;21141;-51
2022/08/26 00:35:22;;;;;;;3.22;2.22;;;;;;;17.54;100.00;99601.69;1750452;80;20964;-51
2022/08/26 00:37:48;;;;;;;5.75;2.70;;;;;;;17.55;100.00;99600.70;1747726;80;20982;-52
2022/08/26 00:40:18;;;;;;;5.30;2.60;;;;;;;17.57;100.00;99597.37;1743944;80;21005;-52
2022/08/26 00:42:44;;;;;;;5.53;2.30;;;;;;;17.59;100.00;99598.62;1751711;80;21567;-53
2022/08/26 00:45:11;;;;;;;6.30;2.92;;;;;;;17.57;100.00;99594.66;1759184;80;21160;-51
2022/08/26 00:47:45;;;;;;;4.40;3.10;;;;;;;17.56;100.00;99598.36;1745121;80;21164;-52
2022/08/26 00:50:15;;;;;;;3.08;2.45;;;;;;;17.54;100.00;99592.16;1745000;80;26698;-52
2022/08/26 00:52:42;;;;;;;4.30;3.02;;;;;;;17.52;100.00;99591.44;1744310;80;21028;-52
2022/08/26 00:55:16;;;;;;;3.85;3.15;;;;;;;17.51;100.00;99582.03;1746153;80;21014;-52
2022/08/26 00:57:43;;;;;;;5.17;2.33;;;;;;;17.48;100.00;99586.34;1733500;80;21230;-51
2022/08/26 01:00:15;;;;;;;3.87;2.92;;;;;;;17.47;100.00;99584.12;1719969;81;21075;-53
2022/08/26 01:02:41;;;;;;;2.75;1.72;;;;;;;17.44;100.00;99581.63;1715574;81;21108;-51
2022/08/26 01:05:08;;;;;;;2.08;1.87;;;;;;;17.43;100.00;99580.41;1716676;81;21137;-52
2022/08/26 01:07:35;;;;;;;7.62;2.45;;;;;;;17.44;100.00;99579.43;1718211;81;21584;-51
2022/08/26 01:10:07;;;;;;;4.08;2.17;;;;;;;17.45;100.00;99579.28;1715549;81;22263;-51
2022/08/26 01:12:38;;;;;;;3.33;2.10;;;;;;;17.48;100.00;99583.13;1716159;81;21506;-52
2022/08/26 01:15:09;;;;;;;4.80;2.58;;;;;;;17.53;100.00;99582.75;1713647;81;21532;-52
2022/08/26 01:17:37;;;;;;;5.08;2.60;;;;;;;17.53;100.00;99580.03;1728459;81;21805;-52
2022/08/26 01:20:21;;;;;;;3.25;2.95;;;;;;;17.51;100.00;99579.31;1714939;81;20891;-51
2022/08/26 01:23:01;;;;;;;7.95;2.70;;;;;;;17.50;100.00;99577.09;1718382;81;21230;-51
2022/08/26 01:25:29;;;;;;;2.90;2.70;;;;;;;17.47;100.00;99573.73;1716666;81;20899;-51
2022/08/26 01:27:56;;;;;;;3.35;2.92;;;;;;;17.47;100.00;99581.89;1724060;81;20982;-52
2022/08/26 01:30:24;;;;;;;2.52;2.33;;;;;;;17.46;100.00;99572.86;1717328;81;20929;-52
2022/08/26 01:32:51;;;;;;;4.95;2.00;;;;;;;17.43;100.00;99579.92;1690976;83;20985;-50
2022/08/26 01:35:18;;;;;;;4.80;2.67;;;;;;;17.34;100.00;99579.28;1669629;84;21135;-50
2022/08/26 01:37:44;;;;;;;5.78;2.00;;;;;;;17.26;100.00;99576.30;1662516;84;21497;-53
2022/08/26 01:40:15;;;;;;;2.27;1.95;;;;;;;17.24;100.00;99576.91;1686033;83;20929;-52
2022/08/26 01:42:42;;;;;;;3.95;2.02;;;;;;;17.24;100.00;99570.98;1665514;84;20967;-51
2022/08/26 01:45:17;;;;;;;3.02;2.12;;;;;;;17.27;100.00;99579.37;1659611;84;21564;-51
2022/08/26 01:47:43;;;;;;;2.77;2.50;;;;;;;17.31;100.00;99565.91;1670204;84;21120;-49
2022/08/26 01:50:13;;;;;;;3.05;2.35;;;;;;;17.34;100.00;99565.19;1670995;84;21089;-51
2022/08/26 01:52:41;;;;;;;5.47;2.37;;;;;;;17.37;100.00;99562.20;1647433;84;20905;-51
2022/08/26 01:55:09;;;;;;;3.00;2.72;;;;;;;17.38;100.00;99559.00;1668307;84;20981;-52
2022/08/26 01:57:35;;;;;;;4.50;2.30;;;;;;;17.36;100.00;99559.11;1670837;84;21055;-54
2022/08/26 02:00:04;;;;;;;4.65;2.33;;;;;;;17.35;100.00;99565.53;1667252;84;21279;-54
2022/08/26 02:02:33;;;;;;;7.00;2.60;;;;;;;17.29;100.00;99560.59;1674299;84;20924;-53
2022/08/26 02:05:03;;;;;;;2.17;1.98;;;;;;;17.26;100.00;99561.34;1669906;84;21291;-54
2022/08/26 02:07:30;;;;;;;2.95;2.37;;;;;;;17.23;100.00;99562.94;1674677;84;21085;-54
2022/08/26 02:09:56;;;;;;;2.65;2.12;;;;;;;17.20;100.00;99563.16;1651176;83;22618;-54
2022/08/26 02:12:23;;;;;;;2.12;1.92;;;;;;;17.20;100.00;99562.67;1675274;84;21098;-54
2022/08/26 02:14:52;;;;;;;2.17;2.05;;;;;;;17.21;100.00;99556.25;1671470;83;21422;-54
2022/08/26 02:17:24;;;;;;;2.33;2.22;;;;;;;17.24;100.00;99556.51;1671316;83;21101;-54
2022/08/26 02:19:50;;;;;;;3.45;2.37;;;;;;;17.25;100.00;99552.80;1664225;84;21584;-55
2022/08/26 02:22:19;;;;;;;3.15;2.95;;;;;;;17.26;100.00;99552.69;1668091;84;21097;-55
2022/08/26 02:24:58;;;;;;;2.62;1.90;;;;;;;17.27;100.00;99555.75;1672937;83;21088;-55
2022/08/26 02:27:30;;;;;;;3.75;2.45;;;;;;;17.27;100.00;99551.67;1659271;84;21071;-55
2022/08/26 02:30:00;;;;;;;2.37;1.40;;;;;;;17.28;100.00;99552.55;1645267;85;21649;-55
2022/08/26 02:32:26;;;;;;;3.33;1.87;;;;;;;17.28;100.00;99554.77;1679261;83;21074;-54
2022/08/26 02:34:53;;;;;;;3.80;2.70;;;;;;;17.27;100.00;99550.31;1670178;83;21089;-54
2022/08/26 02:37:19;;;;;;;3.35;2.27;;;;;;;17.27;100.00;99556.25;1708129;82;21006;-54
2022/08/26 02:39:46;;;;;;;3.45;2.33;;;;;;;17.28;100.00;99558.85;1705515;82;21041;-55
2022/08/26 02:42:12;;;;;;;3.50;2.25;;;;;;;17.29;100.00;99561.95;1703446;82;21872;-55
2022/08/26 02:44:39;;;;;;;2.47;2.33;;;;;;;17.32;100.00;99560.84;1714545;82;21093;-55
2022/08/26 02:47:06;;;;;;;3.08;2.80;;;;;;;17.33;100.00;99559.37;1706962;82;21530;-55
2022/08/26 02:49:32;;;;;;;5.60;2.58;;;;;;;17.33;100.00;99560.73;1674849;83;21483;-55
2022/08/26 02:51:59;;;;;;;6.47;2.83;;;;;;;17.34;100.00;99560.25;1707637;82;21069;-55
2022/08/26 02:54:26;;;;;;;3.05;2.70;;;;;;;17.31;100.00;99562.70;1708175;82;21081;-55
2022/08/26 02:56:52;;;;;;;2.72;2.45;;;;;;;17.28;100.00;99557.98;1711296;82;21073;-55
2022/08/26 02:59:18;;;;;;;3.55;2.25;;;;;;;17.24;100.00;99567.39;1705683;82;21049;-55
2022/08/26 03:01:46;;;;;;;2.47;2.27;;;;;;;17.22;100.00;99562.06;1709703;82;21192;-55
2022/08/26 03:04:12;;;;;;;2.17;1.92;;;;;;;17.20;100.00;99572.19;1653522;83;21065;-55
2022/08/26 03:06:39;;;;;;;6.72;2.67;;;;;;;17.22;100.00;99576.16;1710610;82;21075;-55
2022/08/26 03:09:06;;;;;;;2.75;2.22;;;;;;;17.23;100.00;99565.16;1705523;82;21520;-55
2022/08/26 03:11:32;;;;;;;5.12;3.22;;;;;;;17.24;100.00;99566.90;1709585;82;21049;-55
2022/08/26 03:13:59;;;;;;;2.72;2.35;;;;;;;17.25;100.00;99571.84;1707923;82;21449;-55
2022/08/26 03:16:25;;;;;;;4.90;2.80;;;;;;;17.26;100.00;99566.78;1713182;82;21096;-55
2022/08/26 03:18:52;;;;;;;3.22;3.02;;;;;;;17.23;100.00;99576.53;1708630;82;21543;-55
2022/08/26 03:21:19;;;;;;;7.80;2.92;;;;;;;17.19;100.00;99569.58;1704806;82;21059;-55
2022/08/26 03:23:46;;;;;;;2.27;2.17;;;;;;;17.15;100.00;99573.55;1710252;82;21104;-55
2022/08/26 03:26:13;;;;;;;5.72;2.98;;;;;;;17.11;100.00;99582.91;1712137;82;22214;-55
2022/08/26 03:31:24;;;;;;;2.08;1.75;;;;;;;17.12;100.00;99574.64;1699886;82;21022;-55
2022/08/26 03:33:50;;;;;;;2.60;2.17;;;;;;;17.15;100.00;99579.86;1706865;82;21359;-55
2022/08/26 03:36:17;;;;;;;3.62;2.35;;;;;;;17.18;100.00;99579.59;1696114;82;21169;-55
2022/08/26 03:38:43;;;;;;;3.17;2.02;;;;;;;17.22;100.00;99580.23;1664227;84;21208;-55
2022/08/26 03:41:11;;;;;;;11.80;3.10;;;;;;;17.26;100.00;99578.53;1669616;83;21049;-55
2022/08/26 03:43:39;;;;;;;4.28;2.33;;;;;;;17.31;100.00;99576.30;1699212;82;21129;-55
2022/08/26 03:46:09;;;;;;;12.00;2.83;;;;;;;17.35;100.00;99577.78;1677201;84;20982;-55
2022/08/26 03:48:38;;;;;;;27.77;3.75;;;;;;;17.36;100.00;99573.20;1666096;84;21133;-55
2022/08/26 03:51:12;;;;;;;14.38;3.15;;;;;;;17.39;100.00;99573.84;1701395;82;22168;-55
2022/08/26 03:53:38;;;;;;;11.97;2.85;;;;;;;17.44;100.00;99577.55;1702137;82;21060;-55
2022/08/26 03:56:05;;;;;;;12.18;2.17;;;;;;;17.46;100.00;99578.30;1703279;82;21077;-55
2022/08/26 03:58:32;;;;;;;20.25;2.58;;;;;;;17.50;100.00;99580.30;1705337;82;21585;-57
2022/08/26 04:00:58;;;;;;;12.15;2.58;;;;;;;17.53;100.00;99575.95;1700206;82;21074;-54
2022/08/26 04:06:11;;;;;;;13.58;2.77;;;;;;;17.65;100.00;99572.30;1708253;82;21671;-55
2022/08/26 04:08:38;;;;;;;9.10;2.17;;;;;;;17.77;100.00;99571.33;1705444;82;21126;-55
2022/08/26 04:11:05;;;;;;;9.55;2.72;;;;;;;17.93;100.00;99562.78;1699457;82;21654;-55
2022/08/26 04:13:31;;;;;;;7.37;2.35;;;;;;;18.14;100.00;99557.78;1702342;82;21043;-55
2022/08/26 04:15:58;;;;;;;3.58;2.05;;;;;;;18.39;100.00;99565.28;1704488;82;21148;-54
2022/08/26 04:18:26;;;;;;;3.00;1.75;;;;;;;18.64;100.00;99563.62;1703470;82;21057;-54
2022/08/26 04:20:53;;;;;;;4.47;1.70;;;;;;;18.93;100.00;99558.94;1671937;84;21029;-55
2022/08/26 04:23:20;;;;;;;3.30;1.87;;;;;;;19.21;100.00;99551.47;1704707;82;21423;-55
2022/08/26 04:25:46;;;;;;;7.75;1.87;;;;;;;19.50;100.00;99558.48;1701114;82;21063;-54
2022/08/26 04:28:13;;;;;;;6.85;2.87;;;;;;;19.76;100.00;99546.63;1669962;83;22597;-55
2022/08/26 04:30:40;;;;;;;8.03;1.52;;;;;;;19.98;100.00;99545.08;1697083;82;20917;-55
2022/08/26 04:33:06;;;;;;;6.85;1.98;;;;;;;20.13;100.00;99544.19;1702157;82;20922;-55
2022/08/26 04:35:33;;;;;;;4.28;1.72;;;;;;;20.26;100.00;99545.64;1674922;83;20974;-55
2022/08/26 04:38:00;;;;;;;7.50;2.70;;;;;;;20.33;100.00;99545.44;1670241;84;20927;-56
2022/08/26 04:40:26;;;;;;;7.75;2.12;;;;;;;20.39;100.00;99547.67;1710736;82;21763;-56
2022/08/26 04:42:53;;;;;;;4.65;1.95;;;;;;;20.41;100.00;99539.83;1700822;82;21046;-56
2022/08/26 04:45:20;;;;;;;6.75;1.87;;;;;;;20.41;100.00;99543.43;1706356;82;21039;-56
2022/08/26 04:47:46;;;;;;;4.90;2.45;;;;;;;20.43;100.00;99546.86;1711516;82;21499;-57
2022/08/26 04:50:14;;;;;;;5.75;1.80;;;;;;;20.48;100.00;99540.48;1703234;82;21049;-56
2022/08/26 04:52:41;;;;;;;3.70;1.80;;;;;;;20.53;100.00;99538.68;1703889;82;21142;-56
2022/08/26 04:55:08;;;;;;;2.52;1.37;;;;;;;20.58;100.00;99541.37;1670371;84;20916;-54
2022/08/26 04:57:35;;;;;;;7.47;1.92;;;;;;;20.63;100.00;99537.69;1675928;84;21006;-55
2022/08/26 05:00:04;;;;;;;16.93;2.47;;;;;;;20.67;100.00;99536.91;1669338;84;20884;-56
2022/08/26 05:02:31;;;;;;;4.35;1.57;;;;;;;20.69;100.00;99539.84;1708600;82;21034;-55
2022/08/26 05:04:57;;;;;;;6.20;3.20;;;;;;;20.73;100.00;99537.20;1700667;82;21091;-55
2022/08/26 05:07:24;;;;;;;7.75;2.05;;;;;;;20.77;100.00;99536.39;1698756;82;21132;-56
2022/08/26 05:09:50;;;;;;;3.42;1.80;;;;;;;20.84;100.00;99536.70;1699949;82;21721;-56
2022/08/26 05:12:17;;;;;;;3.37;1.70;;;;;;;20.91;100.00;99538.71;1705007;82;21148;-55
2022/08/26 05:14:45;;;;;;;3.25;1.40;;;;;;;20.96;100.00;99533.66;1671380;83;21093;-55
2022/08/26 05:17:11;;;;;;;8.25;1.60;;;;;;;21.02;100.00;99540.41;1672683;84;21138;-55
2022/08/26 05:19:37;;;;;;;6.87;1.92;;;;;;;21.08;100.00;99540.72;1704220;82;21016;-55
2022/08/26 05:22:04;;;;;;;6.83;1.90;;;;;;;21.14;100.00;99534.66;1710914;82;21102;-54
2022/08/26 05:24:31;;;;;;;3.58;1.52;;;;;;;21.22;100.00;99535.31;1702101;82;21669;-54
2022/08/26 05:26:57;;;;;;;9.83;1.70;;;;;;;21.30;100.00;99535.95;1703484;82;21061;-54
2022/08/26 05:29:24;;;;;;;16.15;2.02;;;;;;;21.37;100.00;99539.31;1705700;82;21829;-53
2022/08/26 05:31:51;;;;;;;7.08;1.20;;;;;;;21.45;100.00;99533.96;1702866;82;21487;-55
2022/08/26 05:34:18;;;;;;;24.20;2.70;;;;;;;21.56;100.00;99536.17;1705811;82;21045;-53
2022/08/26 05:36:44;;;;;;;8.28;2.02;;;;;;;21.61;100.00;99534.70;1703683;82;21058;-54
2022/08/26 05:39:11;;;;;;;6.35;1.50;;;;;;;21.69;100.00;99541.66;1699713;82;21532;-54
2022/08/26 05:41:39;;;;;;;5.70;1.52;;;;;;;21.75;100.00;99535.61;1704487;82;21070;-53
2022/08/26 05:44:09;;;;;;;15.50;1.60;;;;;;;21.80;100.00;99526.42;1687706;82;21049;-54
2022/08/26 05:46:36;;;;;;;1.75;1.30;;;;;;;21.89;100.00;99535.11;1704060;82;21504;-53
2022/08/26 05:49:04;;;;;;;8.10;1.55;;;;;;;21.97;100.00;99541.70;1699508;82;21108;-54
2022/08/26 05:51:31;;;;;;;4.65;1.50;;;;;;;22.03;100.00;99532.39;1702749;82;21129;-54
2022/08/26 05:53:58;;;;;;;8.83;2.10;;;;;;;22.09;100.00;99527.70;1700208;82;21121;-53
2022/08/26 05:56:26;;;;;;;2.55;1.27;;;;;;;22.12;100.00;99531.99;1671629;83;21072;-54
2022/08/26 05:58:53;;;;;;;4.33;1.90;;;;;;;22.17;100.00;99538.77;1708152;80;21045;-54
2022/08/26 06:01:24;;;;;;;2.10;1.32;;;;;;;22.23;100.00;99535.91;1702024;82;21533;-53
2022/08/26 06:03:54;;;;;;;4.62;1.37;;;;;;;22.30;100.00;99538.89;1665724;84;21076;-54
2022/08/26 06:06:27;;;;;;;6.50;1.40;;;;;;;22.34;100.00;99538.95;1669257;84;21129;-56
2022/08/26 06:08:53;;;;;;;9.90;2.33;;;;;;;22.37;100.00;99538.12;1706701;82;21063;-56
2022/08/26 06:11:25;;;;;;;10.80;1.50;;;;;;;22.43;100.00;99544.89;1706903;82;21087;-55
2022/08/26 06:13:52;;;;;;;4.87;1.45;;;;;;;22.48;100.00;99544.77;1711671;82;21100;-56
2022/08/26 06:16:25;;;;;;;3.17;1.27;;;;;;;22.54;100.00;99549.63;1703626;82;21065;-56
2022/08/26 06:18:50;;;;;;;7.12;1.80;;;;;;;22.59;100.00;99544.55;1710878;82;21168;-56
2022/08/26 06:21:32;;;;;;;13.88;1.30;;;;;;;22.64;100.00;99539.95;1704795;82;21102;-57
2022/08/26 06:26:51;;;;;;;16.25;1.45;;;;;;;22.76;100.00;99536.52;1699276;82;21061;-55
2022/08/26 06:29:19;;;;;;;10.53;1.70;;;;;;;22.84;100.00;99543.45;1712802;81;21509;-56
2022/08/26 06:31:46;;;;;;;3.42;1.27;;;;;;;22.91;100.00;99541.80;1718942;81;21515;-56
2022/08/26 06:34:12;;;;;;;5.85;1.62;;;;;;;22.98;100.00;99543.76;1719851;81;21065;-56
2022/08/26 06:36:41;;;;;;;5.12;1.27;;;;;;;23.06;100.00;99536.61;1712871;81;21053;-56
2022/08/26 06:39:09;;;;;;;7.60;1.37;;;;;;;23.12;100.00;99536.86;1721947;81;21031;-56
2022/08/26 06:41:37;;;;;;;3.95;1.72;;;;;;;23.17;100.00;99542.73;1681815;83;21665;-56
2022/08/26 06:44:04;;;;;;;7.53;1.62;;;;;;;23.23;100.00;99537.96;1681917;83;21828;-55
2022/08/26 06:46:31;;;;;;;3.60;1.20;;;;;;;23.28;100.00;99531.50;1694282;83;21683;-55
2022/08/26 06:48:57;;;;;;;4.15;1.47;;;;;;;23.33;100.00;99533.75;1660516;84;21097;-57
2022/08/26 06:51:27;;;;;;;4.95;1.42;;;;;;;23.39;100.00;99532.59;1655551;84;21635;-56
2022/08/26 06:53:54;;;;;;;12.33;1.77;;;;;;;23.47;100.00;99533.70;1679804;83;21765;-55
2022/08/26 06:56:23;;;;;;;8.58;1.40;;;;;;;23.54;100.00;99522.44;1684233;83;21140;-55
2022/08/26 06:58:50;;;;;;;6.97;1.50;;;;;;;23.59;100.00;99520.92;1676902;83;21070;-56
2022/08/26 07:01:29;;;;;;;8.30;1.27;;;;;;;23.63;100.00;99529.71;1673835;83;21097;-55
2022/08/26 07:03:57;;;;;;;8.05;1.92;;;;;;;23.65;100.00;99520.26;1677208;83;21469;-55
2022/08/26 07:06:26;;;;;;;8.40;2.30;;;;;;;23.69;100.00;99518.06;1671045;83;21143;-56
2022/08/26 07:08:53;;;;;;;11.65;1.55;;;;;;;23.73;100.00;99514.80;1681453;83;21548;-56
2022/08/26 07:11:20;;;;;;;3.58;1.25;;;;;;;23.82;100.00;99513.51;1678118;83;21734;-55
2022/08/26 07:13:46;;;;;;;5.00;1.20;;;;;;;23.88;100.00;99529.34;1680587;83;21129;-57
2022/08/26 07:16:14;;;;;;;5.87;1.27;;;;;;;23.96;100.00;99535.73;1673758;83;22285;-57
2022/08/26 07:18:41;;;;;;;4.10;1.12;;;;;;;24.05;100.00;99543.51;1682455;83;21089;-58
2022/08/26 07:21:10;;;;;;;9.85;1.25;;;;;;;24.13;100.00;99538.91;1685370;83;21135;-58
2022/08/26 07:23:37;;;;;;;13.13;2.25;;;;;;;24.21;100.00;99543.61;1685970;83;21568;-57
2022/08/26 07:26:15;;;;;;;14.83;1.67;;;;;;;24.27;100.00;99537.44;1689717;83;20914;-58
2022/08/26 07:28:42;;;;;;;6.58;2.25;;;;;;;24.34;100.00;99539.86;1661562;84;21057;-57
2022/08/26 07:31:09;;;;;;;5.22;1.05;;;;;;;24.42;100.00;99532.14;1664913;84;20994;-58
2022/08/26 07:33:37;;;;;;;12.37;1.72;;;;;;;24.49;100.00;99540.97;1675770;83;21080;-57
2022/08/26 07:36:06;;;;;;;11.20;1.60;;;;;;;24.55;100.00;99533.05;1677799;83;21332;-57
2022/08/26 07:38:33;;;;;;;12.95;1.25;;;;;;;24.59;100.00;99531.16;1683098;83;21921;-58
2022/08/26 07:41:00;;;;;;;8.90;1.42;;;;;;;24.64;100.00;99535.66;1712504;81;21057;-58
2022/08/26 07:43:28;;;;;;;4.12;1.20;;;;;;;24.71;100.00;99528.45;1713394;81;21151;-57
2022/08/26 07:45:54;;;;;;;9.05;1.30;;;;;;;24.78;100.00;99523.11;1712327;81;22089;-58
2022/08/26 07:48:21;;;;;;;8.73;1.10;;;;;;;24.86;100.00;99528.63;1711741;81;20915;-57
2022/08/26 07:50:47;;;;;;;5.05;1.10;;;;;;;24.94;100.00;99522.30;1711851;81;20961;-55
2022/08/26 07:53:14;;;;;;;5.30;0.80;;;;;;;25.02;100.00;99519.55;1718268;81;20951;-55
2022/08/26 07:55:40;;;;;;;6.35;1.42;;;;;;;25.09;100.00;99514.59;1712533;81;20942;-54
2022/08/26 07:58:07;;;;;;;4.53;1.47;;;;;;;25.18;100.00;99514.03;1712198;81;21207;-54
2022/08/26 08:00:33;;;;;;;6.03;1.25;;;;;;;25.25;100.00;99509.58;1709904;81;20990;-55
2022/08/26 08:03:01;;;;;;;22.93;1.57;;;;;;;25.32;100.00;99502.34;1711040;81;20991;-55
2022/08/26 08:05:31;;;;;;;15.88;1.52;;;;;;;25.40;100.00;99500.95;1719691;81;21057;-55
2022/08/26 08:08:00;;;;;;;17.12;1.25;;;;;;;25.47;100.00;99495.59;1709260;81;21065;-54
2022/08/26 08:10:28;;;;;;;3.65;0.90;;;;;;;25.54;100.00;99493.84;1712670;81;21127;-54
2022/08/26 08:12:55;;;;;;;25.43;1.75;;;;;;;25.61;100.00;99497.13;1710857;81;21080;-55
2022/08/26 08:15:24;;;;;;;14.73;2.02;;;;;;;25.68;100.00;99489.56;1713184;81;21507;-57
2022/08/26 08:17:50;;;;;;;12.28;2.75;;;;;;;25.76;100.00;99489.02;1707722;81;21109;-56
2022/08/26 08:20:16;;;;;;;7.92;1.70;;;;;;;25.84;100.00;99493.64;1716566;81;21089;-56
2022/08/26 08:22:43;;;;;;;8.28;0.98;;;;;;;25.92;100.00;99488.09;1710353;81;21523;-55
2022/08/26 08:25:10;;;;;;;6.55;0.90;;;;;;;26.00;100.00;99490.82;1712569;81;21138;-57
2022/08/26 08:27:38;;;;;;;6.33;0.80;;;;;;;26.08;100.00;99485.27;1710648;81;21457;-55
2022/08/26 08:30:06;;;;;;;4.78;1.22;;;;;;;26.17;100.00;99485.57;1672781;83;21045;-55
2022/08/26 08:32:32;;;;;;;10.53;1.50;;;;;;;26.26;100.00;99480.91;1669030;83;21384;-56
2022/08/26 08:34:59;;;;;;;3.87;0.80;;;;;;;26.34;100.00;99478.09;1701878;82;21477;-55
2022/08/26 08:37:25;;;;;;;3.45;1.05;;;;;;;26.41;100.00;99480.47;1701731;82;21128;-55
2022/08/26 08:39:52;;;;;;;7.58;0.90;;;;;;;26.50;100.00;99479.89;1705726;82;21700;-56
2022/08/26 08:42:57;;;;;;;26.25;1.32;;;;;;;26.55;100.00;99480.20;1697803;82;22477;-55
2022/08/26 08:45:48;;;;;;;17.90;3.10;;;;;;;26.57;100.00;99477.59;1700820;82;21152;-54
2022/08/26 08:48:28;;;;;;;39.58;5.15;;;;;;;26.66;100.00;99470.12;1701839;82;21607;-55
2022/08/26 08:50:55;;;;;;;4.62;1.00;;;;;;;26.75;100.00;99477.30;1703033;82;21097;-55
2022/08/26 08:53:37;;;;;;;13.83;1.60;;;;;;;26.84;100.00;99475.34;1700152;82;21484;-55
2022/08/26 08:56:30;;;;;;;3.12;1.00;;;;;;;26.87;100.00;99474.46;1704104;82;21053;-56
2022/08/26 08:59:19;;;;;;;8.40;1.57;;;;;;;26.92;100.00;99469.78;1701858;82;21574;-55
2022/08/26 09:01:55;;;;;;;3.47;1.00;;;;;;;26.97;100.00;99471.45;1705626;81;21415;-55
2022/08/26 09:04:39;;;;;;;4.47;0.70;;;;;;;27.00;100.00;99467.81;1710016;82;21042;-55
2022/08/26 09:07:09;;;;;;;4.85;0.80;;;;;;;27.02;100.00;99464.34;1695567;82;21085;-55
2022/08/26 09:09:54;;;;;;;4.95;0.80;;;;;;;27.08;100.00;99461.35;1652215;84;21060;-55
2022/08/26 09:12:26;;;;;;;10.03;1.77;;;;;;;27.16;100.00;99456.27;1673620;83;21053;-55
2022/08/26 09:14:56;;;;;;;7.12;1.00;;;;;;;27.23;100.00;99450.33;1662359;83;21250;-56
2022/08/26 09:18:01;;;;;;;4.72;1.05;;;;;;;27.30;100.00;99444.41;1666308;83;21088;-56
2022/08/26 09:20:57;;;;;;;5.83;1.02;;;;;;;27.37;100.00;99446.75;1644523;84;21073;-55
2022/08/26 09:23:25;;;;;;;11.48;0.70;;;;;;;27.45;100.00;99450.28;1664804;83;21575;-55
2022/08/26 09:25:58;;;;;;;5.80;0.70;;;;;;;27.53;100.00;99445.70;1666918;83;21070;-55
2022/08/26 09:28:26;;;;;;;6.62;0.82;;;;;;;27.59;100.00;99433.91;1702823;82;21157;-55
2022/08/26 09:31:27;;;;;;;6.62;0.80;;;;;;;27.66;100.00;99434.34;1725709;81;21144;-55
2022/08/26 09:34:17;;;;;;;3.95;0.70;;;;;;;27.74;100.00;99432.00;1724298;81;21096;-55
2022/08/26 09:36:52;;;;;;;3.60;0.90;;;;;;;27.83;100.00;99432.23;1657102;84;21072;-54
2022/08/26 09:39:31;;;;;;;8.28;0.62;;;;;;;27.92;100.00;99434.37;1680190;83;21288;-55
2022/08/26 09:42:12;;;;;;;2.92;0.60;;;;;;;27.98;100.00;99440.53;1660065;84;21892;-54
2022/08/26 09:45:02;;;;;;;4.60;0.40;;;;;;;28.03;100.00;99425.06;1696719;83;21118;-55
2022/08/26 09:47:37;;;;;;;3.42;0.40;;;;;;;28.09;100.00;99432.58;1681952;83;21092;-55
2022/08/26 09:50:31;;;;;;;2.50;0.50;;;;;;;28.16;100.00;99429.39;1656949;84;21489;-55
2022/08/26 09:53:20;;;;;;;6.55;0.50;;;;;;;28.22;100.00;99430.55;1658825;84;21094;-55
2022/08/26 09:55:53;;;;;;;4.28;0.50;;;;;;;28.26;100.00;99420.78;1653130;84;21111;-55
2022/08/26 09:58:37;;;;;;;10.45;0.68;;;;;;;28.29;100.00;99431.48;1683824;83;25024;-57
2022/08/26 10:01:07;;;;;;;4.47;0.50;;;;;;;28.35;100.00;99425.67;1682656;83;21104;-57
2022/08/26 10:03:36;;;;;;;0.93;0.40;;;;;;;28.40;100.00;99421.29;1687786;83;21531;-57
2022/08/26 10:06:19;;;;;;;7.08;0.60;;;;;;;28.44;100.00;99417.05;1685372;83;21352;-56
2022/08/26 10:08:58;;;;;;;0.93;0.50;;;;;;;28.46;100.00;99423.27;1651976;85;21228;-57
2022/08/26 10:11:47;;;;;;;2.30;0.40;;;;;;;28.52;100.00;99422.47;1674855;83;21358;-55
2022/08/26 10:14:27;;;;;;;3.37;0.50;;;;;;;28.57;100.00;99425.52;1677045;83;21076;-55
2022/08/26 10:17:28;;;;;;;3.45;0.50;;;;;;;28.61;100.00;99429.59;1653533;84;21643;-55
2022/08/26 10:20:04;;;;;;;5.03;0.50;;;;;;;28.63;100.00;99422.48;1657461;84;21070;-56
2022/08/26 10:22:45;;;;;;;5.55;0.62;;;;;;;28.64;100.00;99428.87;1657068;84;22225;-54
2022/08/26 10:25:15;;;;;;;0.68;0.40;;;;;;;28.68;100.00;99422.73;1680151;83;21536;-54
2022/08/26 10:28:11;;;;;;;2.25;0.40;;;;;;;28.71;100.00;99428.41;1679307;83;22094;-55
2022/08/26 10:30:50;;;;;;;2.08;0.30;;;;;;;28.74;100.00;99426.64;1648941;85;21113;-55
2022/08/26 10:33:17;;;;;;;3.35;0.40;;;;;;;28.78;100.00;99434.38;1657716;84;21282;-54
2022/08/26 10:35:55;;;;;;;4.92;0.40;;;;;;;28.82;100.00;99436.23;1667687;84;21762;-55
2022/08/26 10:38:28;;;;;;;1.67;0.30;;;;;;;28.86;100.00;99427.84;1706320;82;20960;-55
2022/08/26 10:41:11;;;;;;;5.70;0.60;;;;;;;28.90;100.00;99425.87;1650976;84;21005;-55
2022/08/26 10:43:44;;;;;;;0.90;0.30;;;;;;;28.95;100.00;99430.80;1673082;84;21483;-56
2022/08/26 10:46:17;;;;;;;2.67;0.30;;;;;;;28.98;100.00;99431.80;1668611;84;21030;-57
2022/08/26 10:49:03;;;;;;;3.67;0.33;;;;;;;29.02;100.00;99431.70;1703769;82;21354;-56
2022/08/26 10:51:34;;;;;;;1.37;0.50;;;;;;;29.02;100.00;99430.32;1704358;82;20896;-58
2022/08/26 10:54:12;;;;;;;4.17;0.45;;;;;;;29.01;100.00;99434.70;1654161;84;21271;-56
2022/08/26 10:56:47;;;;;;;3.15;0.40;;;;;;;28.99;100.00;99423.81;1702562;80;21289;-56
2022/08/26 10:59:21;;;;;;;2.65;0.50;;;;;;;28.99;100.00;99423.81;1712118;82;21088;-56
2022/08/26 11:02:14;;;;;;;2.85;0.80;;;;;;;28.97;100.00;99421.77;1699937;82;21767;-56
2022/08/26 11:04:52;;;;;;;0.60;0.30;;;;;;;28.97;100.00;99424.53;1703366;82;21026;-56
2022/08/26 11:07:45;;;;;;;2.08;0.40;;;;;;;28.96;100.00;99418.14;1705070;82;21058;-55
2022/08/26 11:10:24;;;;;;;0.95;0.40;;;;;;;28.99;100.00;99418.27;1704543;82;20994;-55
2022/08/26 11:13:05;;;;;;;2.35;0.50;;;;;;;29.03;100.00;99426.50;1705743;82;21055;-54
2022/08/26 11:15:40;;;;;;;4.95;0.40;;;;;;;29.05;100.00;99413.30;1710212;82;21126;-53
2022/08/26 11:18:13;;;;;;;2.87;0.45;;;;;;;29.10;100.00;99416.32;1703091;82;21065;-54
2022/08/26 11:20:43;;;;;;;2.47;0.30;;;;;;;29.12;100.00;99415.59;1698832;82;21078;-54
2022/08/26 11:23:27;;;;;;;2.47;0.55;;;;;;;29.14;100.00;99409.33;1710729;82;21537;-54
2022/08/26 11:26:13;;;;;;;1.72;0.30;;;;;;;29.17;100.00;99406.17;1672219;84;21077;-55
2022/08/26 11:28:48;;;;;;;6.85;0.47;;;;;;;29.16;100.00;99406.37;1698743;82;21102;-54
2022/08/26 11:31:29;;;;;;;4.58;0.42;;;;;;;29.17;100.00;99408.94;1699223;82;21174;-54
2022/08/26 11:34:01;;;;;;;2.00;0.40;;;;;;;29.21;100.00;99413.01;1671756;83;21174;-55
2022/08/26 11:36:55;;;;;;;6.13;1.10;;;;;;;29.27;100.00;99410.80;1660040;84;21108;-56
2022/08/26 11:39:34;;;;;;;2.92;0.30;;;;;;;29.31;100.00;99406.59;1716825;82;21095;-57
2022/08/26 11:42:23;;;;;;;6.00;0.37;;;;;;;29.35;100.00;99412.06;1710772;82;21998;-57
2022/08/26 11:44:49;;;;;;;1.80;0.33;;;;;;;29.41;100.00;99409.56;1670662;83;21081;-56
2022/08/26 11:47:16;;;;;;;1.27;0.33;;;;;;;29.42;100.00;99416.30;1710824;82;21113;-54
2022/08/26 11:49:43;;;;;;;0.80;0.40;;;;;;;29.43;100.00;99409.70;1690588;82;21117;-55
2022/08/26 11:52:15;;;;;;;1.60;0.30;;;;;;;29.43;100.00;99410.22;1709379;82;21077;-56